sensor_id;sensor_type;location;lat;lon;timestamp;pressure;altitude;pressure_sealevel;temperature;humidity
20160;BME280;50187;50.492;12.134;2023-04-01T00:00:57;95874.34;;;19.72;36.84
20160;BME280;50187;50.492;12.134;2023-04-01T00:03:43;95874.56;;;19.71;36.92
20160;BME280;50187;50.492;12.134;2023-04-01T00:06:29;95882.66;;;19.71;36.80
20160;BME280;50187;50.492;12.134;2023-04-01T00:09:15;95869.78;;;19.66;36.99
20160;BME280;50187;50.492;12.134;2023-04-01T00:12:01;95866.47;;;19.64;36.96
20160;BME280;50187;50.492;12.134;2023-04-01T00:14:45;95870.22;;;19.70;36.80
20160;BME280;50187;50.492;12.134;2023-04-01T00:17:31;95869.56;;;19.68;36.86
20160;BME280;50187;50.492;12.134;2023-04-01T00:20:16;95866.06;;;19.67;36.81
20160;BME280;50187;50.492;12.134;2023-04-01T00:23:02;95871.44;;;19.67;36.95
20160;BME280;50187;50.492;12.134;2023-04-01T00:25:48;95874.56;;;19.71;36.77
20160;BME280;50187;50.492;12.134;2023-04-01T00:28:34;95871.25;;;19.69;36.78
20160;BME280;50187;50.492;12.134;2023-04-01T00:31:20;95871.25;;;19.69;36.90
20160;BME280;50187;50.492;12.134;2023-04-01T00:34:06;95868.97;;;19.66;36.78
20160;BME280;50187;50.492;12.134;2023-04-01T00:36:51;95871.00;;;19.64;36.85
20160;BME280;50187;50.492;12.134;2023-04-01T00:39:37;95865.63;;;19.64;36.79
20160;BME280;50187;50.492;12.134;2023-04-01T00:42:23;95871.88;;;19.64;36.93
20160;BME280;50187;50.492;12.134;2023-04-01T00:48:29;95870.59;;;19.67;36.88
20160;BME280;50187;50.492;12.134;2023-04-01T00:51:19;95866.88;;;19.68;36.76
20160;BME280;50187;50.492;12.134;2023-04-01T00:54:06;95868.75;;;19.67;36.75
20160;BME280;50187;50.492;12.134;2023-04-01T00:56:56;95865.22;;;19.67;36.73
20160;BME280;50187;50.492;12.134;2023-04-01T00:59:46;95865.41;;;19.65;36.73
20160;BME280;50187;50.492;12.134;2023-04-01T01:02:32;95863.13;;;19.62;36.77
20160;BME280;50187;50.492;12.134;2023-04-01T01:05:26;95863.13;;;19.62;36.89
20160;BME280;50187;50.492;12.134;2023-04-01T01:11:44;95871.66;;;19.66;36.74
20160;BME280;50187;50.492;12.134;2023-04-01T01:14:44;95866.03;;;19.61;36.81
20160;BME280;50187;50.492;12.134;2023-04-01T01:23:57;95865.41;;;19.65;36.85
20160;BME280;50187;50.492;12.134;2023-04-01T01:29:45;95861.44;;;19.61;36.81
20160;BME280;50187;50.492;12.134;2023-04-01T01:33:08;95856.06;;;19.61;36.86
20160;BME280;50187;50.492;12.134;2023-04-01T01:35:52;95839.25;;;19.59;36.91
20160;BME280;50187;50.492;12.134;2023-04-01T01:38:39;95846.94;;;19.62;36.72
20160;BME280;50187;50.492;12.134;2023-04-01T01:41:25;95854.81;;;19.64;36.82
20160;BME280;50187;50.492;12.134;2023-04-01T01:44:14;95841.53;;;19.62;36.69
20160;BME280;50187;50.492;12.134;2023-04-01T01:47:00;95834.28;;;19.63;36.64
20160;BME280;50187;50.492;12.134;2023-04-01T01:49:46;95850.28;;;19.64;36.84
20160;BME280;50187;50.492;12.134;2023-04-01T01:52:34;95848.63;;;19.63;36.79
20160;BME280;50187;50.492;12.134;2023-04-01T01:55:32;95854.41;;;19.60;36.90
20160;BME280;50187;50.492;12.134;2023-04-01T01:58:22;95840.28;;;19.58;36.83
20160;BME280;50187;50.492;12.134;2023-04-01T02:01:27;95841.50;;;19.55;36.86
20160;BME280;50187;50.492;12.134;2023-04-01T02:04:18;95844.25;;;19.62;36.63
20160;BME280;50187;50.492;12.134;2023-04-01T02:07:07;95848.41;;;19.65;36.55
20160;BME280;50187;50.492;12.134;2023-04-01T02:09:53;95843.84;;;19.65;36.72
20160;BME280;50187;50.492;12.134;2023-04-01T02:12:41;95845.72;;;19.65;36.78
20160;BME280;50187;50.492;12.134;2023-04-01T02:15:31;95840.31;;;19.65;36.78
20160;BME280;50187;50.492;12.134;2023-04-01T02:18:19;95837.81;;;19.63;36.76
20160;BME280;50187;50.492;12.134;2023-04-01T02:21:07;95836.75;;;19.58;36.70
20160;BME280;50187;50.492;12.134;2023-04-01T02:23:53;95841.75;;;19.61;36.86
20160;BME280;50187;50.492;12.134;2023-04-01T02:26:41;95845.06;;;19.63;36.69
20160;BME280;50187;50.492;12.134;2023-04-01T02:29:27;95835.34;;;19.62;36.72
20160;BME280;50187;50.492;12.134;2023-04-01T02:32:13;95836.34;;;19.61;36.54
20160;BME280;50187;50.492;12.134;2023-04-01T02:34:59;95838.66;;;19.64;36.54
20160;BME280;50187;50.492;12.134;2023-04-01T02:37:50;95837.81;;;19.63;36.84
20160;BME280;50187;50.492;12.134;2023-04-01T02:40:47;95838.63;;;19.57;36.80
20160;BME280;50187;50.492;12.134;2023-04-01T02:43:33;95849.03;;;19.60;36.65
20160;BME280;50187;50.492;12.134;2023-04-01T02:46:18;95847.56;;;19.58;36.83
20160;BME280;50187;50.492;12.134;2023-04-01T02:49:04;95850.66;;;19.54;36.69
20160;BME280;50187;50.492;12.134;2023-04-01T02:51:50;95849.59;;;19.55;36.77
20160;BME280;50187;50.492;12.134;2023-04-01T02:54:36;95852.75;;;19.59;36.60
20160;BME280;50187;50.492;12.134;2023-04-01T02:57:22;95848.16;;;19.60;36.72
20160;BME280;50187;50.492;12.134;2023-04-01T03:00:07;95851.50;;;19.62;36.59
20160;BME280;50187;50.492;12.134;2023-04-01T03:02:56;95858.34;;;19.58;36.67
20160;BME280;50187;50.492;12.134;2023-04-01T03:05:41;95853.75;;;19.58;36.79
20160;BME280;50187;50.492;12.134;2023-04-01T03:08:27;95860.19;;;19.57;36.61
20160;BME280;50187;50.492;12.134;2023-04-01T03:11:13;95867.66;;;19.55;36.83
20160;BME280;50187;50.492;12.134;2023-04-01T03:13:58;95853.97;;;19.56;36.65
20160;BME280;50187;50.492;12.134;2023-04-01T03:16:43;95856.47;;;19.58;36.57
20160;BME280;50187;50.492;12.134;2023-04-01T03:19:29;95863.53;;;19.59;36.70
20160;BME280;50187;50.492;12.134;2023-04-01T03:22:15;95864.16;;;19.61;36.77
20160;BME280;50187;50.492;12.134;2023-04-01T03:25:02;95856.25;;;19.60;36.62
20160;BME280;50187;50.492;12.134;2023-04-01T03:27:48;95857.28;;;19.59;36.63
20160;BME280;50187;50.492;12.134;2023-04-01T03:30:34;95859.97;;;19.59;36.50
20160;BME280;50187;50.492;12.134;2023-04-01T03:33:19;95854.38;;;19.53;36.71
20160;BME280;50187;50.492;12.134;2023-04-01T03:36:05;95873.88;;;19.55;36.83
20160;BME280;50187;50.492;12.134;2023-04-01T03:38:51;95862.88;;;19.57;36.67
20160;BME280;50187;50.492;12.134;2023-04-01T03:41:43;95862.69;;;19.59;36.64
20160;BME280;50187;50.492;12.134;2023-04-01T03:44:33;95863.72;;;19.58;36.74
20160;BME280;50187;50.492;12.134;2023-04-01T03:47:18;95871.81;;;19.58;36.71
20160;BME280;50187;50.492;12.134;2023-04-01T03:50:05;95868.06;;;19.59;36.67
20160;BME280;50187;50.492;12.134;2023-04-01T03:52:50;95857.28;;;19.59;36.72
20160;BME280;50187;50.492;12.134;2023-04-01T03:55:37;95870.97;;;19.57;36.63
20160;BME280;50187;50.492;12.134;2023-04-01T03:58:22;95867.88;;;19.53;36.83
20160;BME280;50187;50.492;12.134;2023-04-01T04:01:20;95868.47;;;19.55;36.63
20160;BME280;50187;50.492;12.134;2023-04-01T04:04:11;95868.28;;;19.57;36.85
20160;BME280;50187;50.492;12.134;2023-04-01T04:06:58;95867.44;;;19.56;36.55
20160;BME280;50187;50.492;12.134;2023-04-01T04:09:44;95875.53;;;19.56;36.51
20160;BME280;50187;50.492;12.134;2023-04-01T04:12:29;95884.47;;;19.57;36.53
20160;BME280;50187;50.492;12.134;2023-04-01T04:15:14;95875.53;;;19.56;36.75
20160;BME280;50187;50.492;12.134;2023-04-01T04:18:00;95885.31;;;19.58;36.71
20160;BME280;50187;50.492;12.134;2023-04-01T04:20:46;95883.03;;;19.54;36.57
20160;BME280;50187;50.492;12.134;2023-04-01T04:23:37;95883.84;;;19.55;36.51
20160;BME280;50187;50.492;12.134;2023-04-01T04:26:22;95883.84;;;19.55;36.73
20160;BME280;50187;50.492;12.134;2023-04-01T04:29:13;95890.91;;;19.56;36.70
20160;BME280;50187;50.492;12.134;2023-04-01T04:31:59;95887.16;;;19.57;36.47
20160;BME280;50187;50.492;12.134;2023-04-01T04:34:45;95891.09;;;19.54;36.52
20160;BME280;50187;50.492;12.134;2023-04-01T04:37:31;95890.06;;;19.55;36.62
20160;BME280;50187;50.492;12.134;2023-04-01T04:40:16;95886.75;;;19.53;36.66
20160;BME280;50187;50.492;12.134;2023-04-01T04:43:01;95891.28;;;19.53;36.55
20160;BME280;50187;50.492;12.134;2023-04-01T04:45:47;95894.19;;;19.51;36.81
20160;BME280;50187;50.492;12.134;2023-04-01T04:48:33;95893.56;;;19.49;36.67
20160;BME280;50187;50.492;12.134;2023-04-01T04:51:19;95903.13;;;19.52;36.68
20160;BME280;50187;50.492;12.134;2023-04-01T04:54:05;95899.81;;;19.56;36.59
20160;BME280;50187;50.492;12.134;2023-04-01T04:57:04;95896.50;;;19.54;36.60
20160;BME280;50187;50.492;12.134;2023-04-01T04:59:55;95893.81;;;19.54;36.72
20160;BME280;50187;50.492;12.134;2023-04-01T05:03:11;95899.41;;;19.60;36.54
20160;BME280;50187;50.492;12.134;2023-04-01T05:05:57;95904.41;;;19.63;36.58
20160;BME280;50187;50.492;12.134;2023-04-01T05:08:44;95905.09;;;19.71;36.33
20160;BME280;50187;50.492;12.134;2023-04-01T05:11:29;95906.97;;;19.78;36.34
20160;BME280;50187;50.492;12.134;2023-04-01T05:14:17;95911.78;;;19.82;36.26
20160;BME280;50187;50.492;12.134;2023-04-01T05:17:12;95918.91;;;19.90;36.29
20160;BME280;50187;50.492;12.134;2023-04-01T05:19:58;95916.22;;;19.97;36.11
20160;BME280;50187;50.492;12.134;2023-04-01T05:22:44;95913.94;;;20.00;36.07
20160;BME280;50187;50.492;12.134;2023-04-01T05:25:29;95921.41;;;20.05;35.97
20160;BME280;50187;50.492;12.134;2023-04-01T05:28:15;95913.56;;;20.10;35.93
20160;BME280;50187;50.492;12.134;2023-04-01T05:31:04;95914.38;;;20.11;35.92
20160;BME280;50187;50.492;12.134;2023-04-01T05:33:56;95913.16;;;20.13;36.01
20160;BME280;50187;50.492;12.134;2023-04-01T05:36:42;95923.75;;;20.15;36.00
20160;BME280;50187;50.492;12.134;2023-04-01T05:39:27;95916.09;;;20.18;35.78
20160;BME280;50187;50.492;12.134;2023-04-01T05:42:13;95928.13;;;20.22;35.91
20160;BME280;50187;50.492;12.134;2023-04-01T05:44:59;95922.31;;;20.25;35.72
20160;BME280;50187;50.492;12.134;2023-04-01T05:48:07;95924.41;;;20.23;35.74
20160;BME280;50187;50.492;12.134;2023-04-01T05:50:57;95917.13;;;20.24;35.90
20160;BME280;50187;50.492;12.134;2023-04-01T05:53:43;95927.72;;;20.25;35.88
20160;BME280;50187;50.492;12.134;2023-04-01T05:56:28;95922.94;;;20.28;35.80
20160;BME280;50187;50.492;12.134;2023-04-01T05:59:14;95914.03;;;20.27;35.79
20160;BME280;50187;50.492;12.134;2023-04-01T06:01:59;95928.16;;;20.29;35.63
20160;BME280;50187;50.492;12.134;2023-04-01T06:04:45;95924.63;;;20.29;35.54
20160;BME280;50187;50.492;12.134;2023-04-01T06:07:30;95931.03;;;20.28;35.69
20160;BME280;50187;50.492;12.134;2023-04-01T06:10:19;95931.03;;;20.28;35.58
20160;BME280;50187;50.492;12.134;2023-04-01T06:13:34;95935.00;;;20.25;35.58
20160;BME280;50187;50.492;12.134;2023-04-01T06:20:09;95947.03;;;20.22;35.76
20160;BME280;50187;50.492;12.134;2023-04-01T06:23:21;95931.03;;;20.21;35.76
20160;BME280;50187;50.492;12.134;2023-04-01T06:26:21;95938.28;;;20.20;35.80
20160;BME280;50187;50.492;12.134;2023-04-01T06:32:49;95938.50;;;20.19;35.97
20160;BME280;50187;50.492;12.134;2023-04-01T06:41:38;95940.38;;;20.18;35.94
20160;BME280;50187;50.492;12.134;2023-04-01T06:48:10;95944.34;;;20.22;35.85
20160;BME280;50187;50.492;12.134;2023-04-01T06:55:02;95935.22;;;20.23;35.95
20160;BME280;50187;50.492;12.134;2023-04-01T06:58:28;95936.84;;;20.24;35.74
20160;BME280;50187;50.492;12.134;2023-04-01T07:01:26;95938.72;;;20.24;35.92
20160;BME280;50187;50.492;12.134;2023-04-01T07:04:23;95933.53;;;20.22;36.08
20160;BME280;50187;50.492;12.134;2023-04-01T07:07:35;95939.75;;;20.23;35.90
20160;BME280;50187;50.492;12.134;2023-04-01T07:13:46;95945.41;;;20.28;35.94
20160;BME280;50187;50.492;12.134;2023-04-01T07:16:45;95949.78;;;20.29;35.73
20160;BME280;50187;50.492;12.134;2023-04-01T07:19:50;95946.22;;;20.29;35.81
20160;BME280;50187;50.492;12.134;2023-04-01T07:22:44;95946.41;;;20.27;35.70
20160;BME280;50187;50.492;12.134;2023-04-01T07:26:04;95948.31;;;20.27;35.98
20160;BME280;50187;50.492;12.134;2023-04-01T07:28:53;95942.03;;;20.26;35.74
20160;BME280;50187;50.492;12.134;2023-04-01T07:32:14;95948.50;;;20.25;35.85
20160;BME280;50187;50.492;12.134;2023-04-01T07:35:35;95945.81;;;20.25;35.88
20160;BME280;50187;50.492;12.134;2023-04-01T07:38:45;95949.13;;;20.27;35.81
20160;BME280;50187;50.492;12.134;2023-04-01T07:42:02;95942.25;;;20.24;35.82
20160;BME280;50187;50.492;12.134;2023-04-01T07:45:19;95957.63;;;20.24;35.86
20160;BME280;50187;50.492;12.134;2023-04-01T07:48:24;95950.16;;;20.26;36.01
20160;BME280;50187;50.492;12.134;2023-04-01T07:51:29;95948.91;;;20.29;35.88
20160;BME280;50187;50.492;12.134;2023-04-01T07:54:25;95949.31;;;20.25;36.02
20160;BME280;50187;50.492;12.134;2023-04-01T07:57:23;95951.19;;;20.25;35.95
20160;BME280;50187;50.492;12.134;2023-04-01T08:00:35;95948.31;;;20.27;35.81
20160;BME280;50187;50.492;12.134;2023-04-01T08:04:03;95963.25;;;20.29;35.86
20160;BME280;50187;50.492;12.134;2023-04-01T08:07:07;95954.31;;;20.29;35.89
20160;BME280;50187;50.492;12.134;2023-04-01T08:10:20;95962.41;;;20.29;35.72
20160;BME280;50187;50.492;12.134;2023-04-01T08:13:40;95958.88;;;20.28;35.78
20160;BME280;50187;50.492;12.134;2023-04-01T08:23:25;95963.44;;;20.28;35.98
20160;BME280;50187;50.492;12.134;2023-04-01T08:29:13;95969.91;;;20.27;35.89
20160;BME280;50187;50.492;12.134;2023-04-01T08:35:29;95956.00;;;20.30;35.83
20160;BME280;50187;50.492;12.134;2023-04-01T08:38:15;95963.88;;;20.31;35.71
20160;BME280;50187;50.492;12.134;2023-04-01T08:47:46;95974.28;;;20.34;35.85
20160;BME280;50187;50.492;12.134;2023-04-01T08:51:08;95961.38;;;20.30;35.68
20160;BME280;50187;50.492;12.134;2023-04-01T08:59:50;95978.41;;;20.30;35.88
20160;BME280;50187;50.492;12.134;2023-04-01T09:03:41;95972.41;;;20.28;36.11
20160;BME280;50187;50.492;12.134;2023-04-01T09:06:42;95965.97;;;20.29;35.99
20160;BME280;50187;50.492;12.134;2023-04-01T09:16:06;95989.22;;;20.30;35.90
20160;BME280;50187;50.492;12.134;2023-04-01T09:25:29;95984.22;;;20.27;36.08
20160;BME280;50187;50.492;12.134;2023-04-01T09:28:33;95984.88;;;20.29;36.07
20160;BME280;50187;50.492;12.134;2023-04-01T09:41:14;95987.16;;;20.39;35.76
20160;BME280;50187;50.492;12.134;2023-04-01T09:44:31;95998.19;;;20.44;36.02
20160;BME280;50187;50.492;12.134;2023-04-01T09:47:50;95984.06;;;20.49;36.06
20160;BME280;50187;50.492;12.134;2023-04-01T09:51:00;95989.91;;;20.52;36.10
20160;BME280;50187;50.492;12.134;2023-04-01T09:54:26;95987.81;;;20.54;35.92
20160;BME280;50187;50.492;12.134;2023-04-01T09:57:37;95984.72;;;20.51;35.92
20160;BME280;50187;50.492;12.134;2023-04-01T10:04:01;95991.38;;;20.55;35.97
20160;BME280;50187;50.492;12.134;2023-04-01T10:19:31;96001.97;;;20.56;35.98
20160;BME280;50187;50.492;12.134;2023-04-01T10:22:31;95993.06;;;20.56;35.84
20160;BME280;50187;50.492;12.134;2023-04-01T10:25:42;95993.88;;;20.56;36.02
20160;BME280;50187;50.492;12.134;2023-04-01T10:29:02;95994.91;;;20.55;35.83
20160;BME280;50187;50.492;12.134;2023-04-01T10:32:32;95994.28;;;20.53;36.02
20160;BME280;50187;50.492;12.134;2023-04-01T10:54:46;95985.53;;;20.51;35.95
20160;BME280;50187;50.492;12.134;2023-04-01T11:01:33;95981.41;;;20.55;36.01
20160;BME280;50187;50.492;12.134;2023-04-01T11:33:15;95989.25;;;20.50;35.78
20160;BME280;50187;50.492;12.134;2023-04-01T11:36:15;95994.50;;;20.52;35.88
20160;BME280;50187;50.492;12.134;2023-04-01T11:39:27;95985.53;;;20.51;35.85
20160;BME280;50187;50.492;12.134;2023-04-01T11:42:32;96000.91;;;20.51;35.88
20160;BME280;50187;50.492;12.134;2023-04-01T11:52:53;96007.13;;;20.51;35.99
20160;BME280;50187;50.492;12.134;2023-04-01T11:59:11;96010.47;;;20.47;35.94
20160;BME280;50187;50.492;12.134;2023-04-01T12:05:03;96020.84;;;20.50;36.08
20160;BME280;50187;50.492;12.134;2023-04-01T12:14:16;96026.47;;;20.48;36.72
20160;BME280;50187;50.492;12.134;2023-04-01T12:17:12;96025.03;;;20.52;36.68
20160;BME280;50187;50.492;12.134;2023-04-01T12:32:05;96032.09;;;20.53;36.51
20160;BME280;50187;50.492;12.134;2023-04-01T12:35:10;96029.81;;;20.57;36.30
20160;BME280;50187;50.492;12.134;2023-04-01T12:38:31;96028.78;;;20.58;36.29
20160;BME280;50187;50.492;12.134;2023-04-01T12:41:33;96038.75;;;20.57;36.48
20160;BME280;50187;50.492;12.134;2023-04-01T12:53:49;96033.13;;;20.52;36.33
20160;BME280;50187;50.492;12.134;2023-04-01T13:06:56;96031.88;;;20.55;36.22
20160;BME280;50187;50.492;12.134;2023-04-01T13:16:16;96032.91;;;20.54;36.33
20160;BME280;50187;50.492;12.134;2023-04-01T13:19:09;96040.00;;;20.55;36.29
20160;BME280;50187;50.492;12.134;2023-04-01T13:22:09;96030.84;;;20.49;36.58
20160;BME280;50187;50.492;12.134;2023-04-01T13:25:03;96040.56;;;20.50;36.51
20160;BME280;50187;50.492;12.134;2023-04-01T13:28:01;96038.94;;;20.49;36.37
20160;BME280;50187;50.492;12.134;2023-04-01T13:31:10;96039.75;;;20.50;36.50
20160;BME280;50187;50.492;12.134;2023-04-01T13:34:32;96042.47;;;20.50;36.44
20160;BME280;50187;50.492;12.134;2023-04-01T13:43:52;96049.34;;;20.52;36.46
20160;BME280;50187;50.492;12.134;2023-04-01T13:50:12;96051.63;;;20.55;36.42
20160;BME280;50187;50.492;12.134;2023-04-01T13:53:29;96041.66;;;20.56;36.54
20160;BME280;50187;50.492;12.134;2023-04-01T13:56:33;96045.41;;;20.55;36.33
20160;BME280;50187;50.492;12.134;2023-04-01T14:05:56;96051.00;;;20.53;36.62
20160;BME280;50187;50.492;12.134;2023-04-01T14:09:00;96051.00;;;20.53;36.65
20160;BME280;50187;50.492;12.134;2023-04-01T14:15:33;96040.78;;;20.49;36.55
20160;BME280;50187;50.492;12.134;2023-04-01T14:18:36;96053.50;;;20.55;36.33
20160;BME280;50187;50.492;12.134;2023-04-01T14:21:32;96049.13;;;20.54;36.37
20160;BME280;50187;50.492;12.134;2023-04-01T14:24:50;96054.13;;;20.57;36.58
20160;BME280;50187;50.492;12.134;2023-04-01T14:43:44;96059.09;;;20.53;36.72
20160;BME280;50187;50.492;12.134;2023-04-01T14:49:47;96065.78;;;20.57;36.60
20160;BME280;50187;50.492;12.134;2023-04-01T14:52:38;96061.41;;;20.56;36.83
20160;BME280;50187;50.492;12.134;2023-04-01T14:58:17;96063.91;;;20.58;36.64
20160;BME280;50187;50.492;12.134;2023-04-01T15:11:02;96060.38;;;20.57;36.68
20160;BME280;50187;50.492;12.134;2023-04-01T15:14:14;96070.97;;;20.59;36.83
20160;BME280;50187;50.492;12.134;2023-04-01T15:20:33;96070.97;;;20.59;36.82
20160;BME280;50187;50.492;12.134;2023-04-01T15:23:56;96077.41;;;20.58;36.61
20160;BME280;50187;50.492;12.134;2023-04-01T15:33:14;96076.59;;;20.57;37.13
20160;BME280;50187;50.492;12.134;2023-04-01T15:36:30;96081.78;;;20.59;37.16
20160;BME280;50187;50.492;12.134;2023-04-01T15:39:31;96083.63;;;20.58;37.20
20160;BME280;50187;50.492;12.134;2023-04-01T15:42:31;96086.13;;;20.60;37.50
20160;BME280;50187;50.492;12.134;2023-04-01T15:48:35;96090.94;;;20.65;37.27
20160;BME280;50187;50.492;12.134;2023-04-01T15:57:27;96099.84;;;20.58;37.32
20160;BME280;50187;50.492;12.134;2023-04-01T16:09:10;96106.50;;;20.56;37.09
20160;BME280;50187;50.492;12.134;2023-04-01T16:12:17;96106.50;;;20.56;37.21
20160;BME280;50187;50.492;12.134;2023-04-01T16:15:14;96116.25;;;20.57;37.07
20160;BME280;50187;50.492;12.134;2023-04-01T16:18:18;96110.84;;;20.57;37.19
20160;BME280;50187;50.492;12.134;2023-04-01T16:21:57;96108.13;;;20.57;37.24
20160;BME280;50187;50.492;12.134;2023-04-01T16:25:17;96117.31;;;20.56;37.01
20160;BME280;50187;50.492;12.134;2023-04-01T16:28:31;96110.63;;;20.58;37.09
20160;BME280;50187;50.492;12.134;2023-04-01T16:34:20;96112.72;;;20.56;36.90
20160;BME280;50187;50.492;12.134;2023-04-01T16:37:14;96120.41;;;20.59;36.84
20160;BME280;50187;50.492;12.134;2023-04-01T16:43:13;96125.00;;;20.66;36.85
20160;BME280;50187;50.492;12.134;2023-04-01T16:46:27;96136.88;;;20.65;36.77
20160;BME280;50187;50.492;12.134;2023-04-01T16:49:30;96126.47;;;20.62;36.84
20160;BME280;50187;50.492;12.134;2023-04-01T16:52:36;96135.59;;;20.61;36.79
20160;BME280;50187;50.492;12.134;2023-04-01T16:59:01;96143.50;;;20.62;36.79
20160;BME280;50187;50.492;12.134;2023-04-01T17:05:15;96145.13;;;20.56;36.97
20160;BME280;50187;50.492;12.134;2023-04-01T17:08:04;96153.03;;;20.58;36.96
20160;BME280;50187;50.492;12.134;2023-04-01T17:10:57;96161.59;;;20.62;36.87
20160;BME280;50187;50.492;12.134;2023-04-01T17:14:26;96166.34;;;20.59;36.90
20160;BME280;50187;50.492;12.134;2023-04-01T17:20:20;96168.03;;;20.61;36.67
20160;BME280;50187;50.492;12.134;2023-04-01T17:26:28;96173.84;;;20.64;36.78
20160;BME280;50187;50.492;12.134;2023-04-01T17:29:29;96174.31;;;20.68;36.72
20160;BME280;50187;50.492;12.134;2023-04-01T17:32:38;96179.72;;;20.68;36.56
20160;BME280;50187;50.492;12.134;2023-04-01T17:35:31;96176.19;;;20.67;36.60
20160;BME280;50187;50.492;12.134;2023-04-01T17:47:23;96197.53;;;20.62;36.88
20160;BME280;50187;50.492;12.134;2023-04-01T17:59:53;96214.84;;;20.68;36.88
20160;BME280;50187;50.492;12.134;2023-04-01T18:12:00;96221.72;;;20.70;36.92
20160;BME280;50187;50.492;12.134;2023-04-01T18:15:13;96225.66;;;20.68;37.06
20160;BME280;50187;50.492;12.134;2023-04-01T18:21:22;96234.38;;;20.70;36.94
20160;BME280;50187;50.492;12.134;2023-04-01T18:24:28;96239.97;;;20.68;36.85
20160;BME280;50187;50.492;12.134;2023-04-01T18:27:17;96237.94;;;20.70;36.94
20160;BME280;50187;50.492;12.134;2023-04-01T18:30:17;96247.06;;;20.69;36.96
20160;BME280;50187;50.492;12.134;2023-04-01T18:36:18;96257.38;;;20.66;37.12
20160;BME280;50187;50.492;12.134;2023-04-01T18:39:11;96263.19;;;20.63;37.25
20160;BME280;50187;50.492;12.134;2023-04-01T18:45:17;96267.56;;;20.64;36.95
20160;BME280;50187;50.492;12.134;2023-04-01T18:51:49;96277.56;;;20.63;37.18
20160;BME280;50187;50.492;12.134;2023-04-01T18:57:55;96290.22;;;20.63;37.22
20160;BME280;50187;50.492;12.134;2023-04-01T19:00:49;96284.81;;;20.63;37.24
20160;BME280;50187;50.492;12.134;2023-04-01T19:03:53;96286.88;;;20.61;37.00
20160;BME280;50187;50.492;12.134;2023-04-01T19:06:49;96289.38;;;20.62;37.25
20160;BME280;50187;50.492;12.134;2023-04-01T19:09:47;96298.31;;;20.63;37.08
20160;BME280;50187;50.492;12.134;2023-04-01T19:18:47;96294.72;;;20.55;37.26
20160;BME280;50187;50.492;12.134;2023-04-01T19:21:41;96292.22;;;20.54;37.14
20160;BME280;50187;50.492;12.134;2023-04-01T19:24:50;96302.25;;;20.60;37.06
20160;BME280;50187;50.492;12.134;2023-04-01T19:27:44;96305.13;;;20.58;37.07
20160;BME280;50187;50.492;12.134;2023-04-01T19:36:37;96307.84;;;20.58;37.33
20160;BME280;50187;50.492;12.134;2023-04-01T19:45:47;96319.03;;;20.55;37.30
20160;BME280;50187;50.492;12.134;2023-04-01T19:48:44;96328.44;;;20.59;37.16
20160;BME280;50187;50.492;12.134;2023-04-01T20:00:50;96335.50;;;20.61;37.16
20160;BME280;50187;50.492;12.134;2023-04-01T20:03:54;96345.91;;;20.64;37.19
20160;BME280;50187;50.492;12.134;2023-04-01T20:09:49;96345.09;;;20.63;37.24
20160;BME280;50187;50.492;12.134;2023-04-01T20:15:42;96360.44;;;20.63;37.17
20160;BME280;50187;50.492;12.134;2023-04-01T20:21:42;96362.75;;;20.66;37.07
20160;BME280;50187;50.492;12.134;2023-04-01T20:24:35;96361.31;;;20.63;36.95
20160;BME280;50187;50.492;12.134;2023-04-01T20:27:53;96365.84;;;20.63;37.11
20160;BME280;50187;50.492;12.134;2023-04-01T20:33:52;96376.25;;;20.66;36.86
20160;BME280;50187;50.492;12.134;2023-04-01T20:39:56;96379.16;;;20.64;37.10
20160;BME280;50187;50.492;12.134;2023-04-01T20:45:57;96382.34;;;20.68;37.02
20160;BME280;50187;50.492;12.134;2023-04-01T20:51:39;96388.75;;;20.67;37.03
20160;BME280;50187;50.492;12.134;2023-04-01T21:00:37;96387.75;;;20.68;36.79
20160;BME280;50187;50.492;12.134;2023-04-01T21:06:39;96395.88;;;20.68;36.93
20160;BME280;50187;50.492;12.134;2023-04-01T21:19:25;96416.22;;;20.49;37.05
20160;BME280;50187;50.492;12.134;2023-04-01T21:22:19;96418.50;;;20.45;37.17
20160;BME280;50187;50.492;12.134;2023-04-01T21:28:34;96419.25;;;20.39;37.33
20160;BME280;50187;50.492;12.134;2023-04-01T21:40:54;96434.94;;;20.29;37.47
20160;BME280;50187;50.492;12.134;2023-04-01T21:47:05;96440.53;;;20.27;37.30
20160;BME280;50187;50.492;12.134;2023-04-01T21:53:14;96448.19;;;20.23;37.48
20160;BME280;50187;50.492;12.134;2023-04-01T21:56:43;96452.72;;;20.23;37.50
20160;BME280;50187;50.492;12.134;2023-04-01T22:05:35;96452.66;;;20.16;37.65
20160;BME280;50187;50.492;12.134;2023-04-01T22:11:19;96456.41;;;20.15;37.53
20160;BME280;50187;50.492;12.134;2023-04-01T22:17:30;96467.00;;;20.17;37.65
20160;BME280;50187;50.492;12.134;2023-04-01T22:32:00;96468.78;;;20.10;37.84
20160;BME280;50187;50.492;12.134;2023-04-01T22:38:07;96471.69;;;20.08;37.72
20160;BME280;50187;50.492;12.134;2023-04-01T22:41:08;96482.28;;;20.10;37.80
20160;BME280;50187;50.492;12.134;2023-04-01T22:43:57;96474.53;;;20.06;37.73
20160;BME280;50187;50.492;12.134;2023-04-01T22:46:56;96483.09;;;20.10;37.53
20160;BME280;50187;50.492;12.134;2023-04-01T22:50:04;96482.28;;;20.10;37.76
20160;BME280;50187;50.492;12.134;2023-04-01T22:56:03;96487.88;;;20.08;37.53
20160;BME280;50187;50.492;12.134;2023-04-01T22:59:10;96506.09;;;20.06;37.79
20160;BME280;50187;50.492;12.134;2023-04-01T23:02:02;96487.13;;;19.99;37.69
20160;BME280;50187;50.492;12.134;2023-04-01T23:04:56;96494.38;;;19.99;37.79
20160;BME280;50187;50.492;12.134;2023-04-01T23:07:54;96497.38;;;20.04;37.75
20160;BME280;50187;50.492;12.134;2023-04-01T23:10:44;96502.56;;;20.05;37.52
20160;BME280;50187;50.492;12.134;2023-04-01T23:13:37;96508.81;;;20.06;37.48